Terminal Aerodrome Forecast
Issued by NWS

Home | Current Version | Previous Version | Text Only | Print | Product List | Glossary On
Versions: 1 2 3 4 5 6 7 8 9 10 11 12 13 14 15 16 17 18 19 20 21 22
000
FTUS43 KGRR 190800 AAA
TAFJXN
TAF AMD
KJXN 190849Z 1909/2006 28003KT 4SM BR OVC006
     FM191100 33003KT P6SM OVC012
     FM191500 34003KT P6SM OVC025
     FM191800 34003KT P6SM SCT025=

USA.gov is the U.S. government's official web portal to all federal, state and local government web resources and services.